Etusivu
METAR-TAF:

METAR-TAF

Lentoasemat :

Richland, Washington, Yhdysvallat

Leveyspiiri: 46-18-20N, Pituuspiiri: 119-18-15W, korkeus merenpinnasta: 120 m

Tämänhetkinen sää

Tämä raportti tehtiin 6 minuuttia sitten, kello 16.55 UTC
Tuuli 4 kn pohjoisen/luoteesta
Lämpötila 6°C
Kosteus 100%
Ilmanpaine 1017 hPa
Näkyvyys: 8.0 km
Pilvistä 200 ft:n korkeudessa
utua

METAR: KRLD 181655Z AUTO 34004KT 5SM BR OVC002 06/06 A3003 RMK AO2 T00590059

Aika: 09:01 (17:01 UTC)


TAF: puuttuu

Säähavainnot ja -ennusteet yli 4000 lentoasemalta (METAR- ja TAF-raportit).

Käytössä olevat sääasemat on merkitty karttaan keltaisilla ja punaisilla pisteillä.

Aseta hiiri pisteen päälle nähdäksesi sääaseman nimen.

Klikkaa sitten nähdäksesi säähavainnot ja -ennusteet.

Kartan vaihtaminen: klikkaa mustalla rastilla varustettuja vihreitä pisteitä, niin voit zoomata sisään; viivalla varustettua vihreää pistettä, niin voit zoomata ulos tai vihreitä nuolia, niin pääset viereisille kartoille.


METAR-TAF: